createdAt,value
2017-02-15T00:00:14.932Z,0
2017-02-15T00:01:19.103Z,0
2017-02-15T00:02:24.291Z,0
2017-02-15T00:03:30.407Z,0
2017-02-15T00:04:35.564Z,0
2017-02-15T00:05:41.695Z,0
2017-02-15T00:06:46.871Z,0
2017-02-15T00:07:53.028Z,0
2017-02-15T00:08:59.144Z,0
2017-02-15T00:10:05.241Z,0
2017-02-15T00:11:10.491Z,0
2017-02-15T00:12:16.609Z,0
2017-02-15T00:13:22.738Z,0
2017-02-15T00:14:28.911Z,0
2017-02-15T00:15:35.058Z,0
2017-02-15T00:16:41.167Z,0
2017-02-15T00:17:47.311Z,0
2017-02-15T00:18:51.517Z,0
2017-02-15T00:19:57.660Z,0
2017-02-15T00:21:03.784Z,0
2017-02-15T00:22:09.887Z,0
2017-02-15T00:23:16.107Z,0
2017-02-15T00:24:22.221Z,0
2017-02-15T00:25:28.355Z,0
2017-02-15T00:26:33.480Z,0
2017-02-15T00:27:39.698Z,0
2017-02-15T00:28:44.872Z,0
2017-02-15T00:29:51.008Z,0
2017-02-15T00:30:56.242Z,0
2017-02-15T00:32:02.469Z,0
2017-02-15T00:33:07.676Z,0
2017-02-15T00:34:13.987Z,0
2017-02-15T00:35:20.094Z,0
2017-02-15T00:36:25.291Z,0
2017-02-15T00:37:31.476Z,0
2017-02-15T00:38:36.724Z,0
2017-02-15T00:39:42.815Z,0
2017-02-15T00:40:48.973Z,0
2017-02-15T00:41:54.168Z,0
2017-02-15T00:43:00.365Z,0
2017-02-15T00:44:05.508Z,0
2017-02-15T00:45:11.622Z,0
2017-02-15T00:46:16.811Z,0
2017-02-15T00:47:22.032Z,0
2017-02-15T00:48:28.156Z,0
2017-02-15T00:49:34.352Z,0
2017-02-15T00:50:40.615Z,0
2017-02-15T00:51:47.208Z,0
2017-02-15T00:52:52.411Z,0
2017-02-15T00:53:58.603Z,0
2017-02-15T00:55:04.690Z,0
2017-02-15T00:56:09.960Z,0
2017-02-15T00:57:14.167Z,0
2017-02-15T00:58:18.375Z,0
2017-02-15T00:59:24.574Z,0
2017-02-15T01:00:30.739Z,0
2017-02-15T01:01:36.782Z,0
2017-02-15T01:02:42.974Z,0
2017-02-15T01:03:48.181Z,0
2017-02-15T01:04:53.408Z,0
2017-02-15T01:05:58.614Z,0
2017-02-15T01:07:03.794Z,0
2017-02-15T01:08:10.022Z,0
2017-02-15T01:09:15.193Z,0
2017-02-15T01:10:19.371Z,0
2017-02-15T01:11:25.513Z,0
2017-02-15T01:12:30.651Z,0
2017-02-15T01:13:34.803Z,0
2017-02-15T01:14:39.976Z,0
2017-02-15T01:15:46.094Z,0
2017-02-15T01:16:52.250Z,0
2017-02-15T01:17:58.416Z,0
2017-02-15T01:19:02.535Z,0
2017-02-15T01:20:08.761Z,0
2017-02-15T01:21:13.911Z,0
2017-02-15T01:22:19.178Z,0
2017-02-15T01:23:24.332Z,0
2017-02-15T01:24:28.529Z,0
2017-02-15T01:25:33.795Z,0
2017-02-15T01:26:39.936Z,0
2017-02-15T01:27:45.112Z,0
2017-02-15T01:28:50.253Z,0
2017-02-15T01:29:55.385Z,0
2017-02-15T01:31:00.575Z,0
2017-02-15T01:32:06.736Z,0
2017-02-15T01:33:12.852Z,0
2017-02-15T01:34:18.972Z,0
2017-02-15T01:35:24.142Z,0
2017-02-15T01:36:29.351Z,0
2017-02-15T01:37:33.599Z,0
2017-02-15T01:38:45.020Z,0
2017-02-15T01:39:51.141Z,0
2017-02-15T01:40:56.396Z,0
2017-02-15T01:42:01.535Z,0
2017-02-15T01:43:06.706Z,0
2017-02-15T01:44:12.855Z,0
2017-02-15T01:45:18.971Z,0
2017-02-15T01:46:25.096Z,0
2017-02-15T01:47:30.232Z,0
2017-02-15T01:48:36.353Z,0
2017-02-15T01:49:41.631Z,0
2017-02-15T01:50:47.845Z,0
2017-02-15T01:51:54.131Z,0
2017-02-15T01:53:00.785Z,0
2017-02-15T01:54:06.980Z,0
2017-02-15T01:55:13.105Z,0
2017-02-15T01:56:19.175Z,0
2017-02-15T01:57:24.357Z,0
2017-02-15T01:58:30.777Z,0
2017-02-15T05:14:01.394Z,0
2017-02-15T06:38:22.781Z,168
2017-02-15T06:39:26.975Z,188
2017-02-15T06:40:32.096Z,208
2017-02-15T06:41:37.183Z,228
2017-02-15T06:42:43.349Z,248
2017-02-15T06:43:49.551Z,276
2017-02-15T06:44:54.685Z,300
2017-02-15T06:45:59.807Z,332
2017-02-15T06:47:05.905Z,356
2017-02-15T06:48:09.095Z,388
2017-02-15T06:49:15.206Z,416
2017-02-15T06:50:19.333Z,448
2017-02-15T06:51:22.532Z,480
2017-02-15T06:52:24.735Z,512
2017-02-15T06:53:30.824Z,552
2017-02-15T06:54:35.955Z,588
2017-02-15T06:55:42.042Z,628
2017-02-15T06:56:47.168Z,672
2017-02-15T06:57:52.301Z,716
2017-02-15T06:58:57.397Z,760
2017-02-15T07:00:03.551Z,808
2017-02-15T07:01:08.645Z,856
2017-02-15T07:02:14.748Z,912
2017-02-15T07:03:20.833Z,964
2017-02-15T07:04:25.985Z,1024
2017-02-15T07:05:30.126Z,1088
2017-02-15T07:06:33.316Z,1164
2017-02-15T07:07:37.471Z,1232
2017-02-15T07:08:42.595Z,1288
2017-02-15T07:09:48.687Z,1340
2017-02-15T07:10:54.773Z,1392
2017-02-15T07:12:00.873Z,1452
2017-02-15T07:13:05.994Z,1508
2017-02-15T07:14:12.090Z,1576
2017-02-15T07:15:18.179Z,1636
2017-02-15T07:16:24.369Z,1712
2017-02-15T07:17:30.507Z,1792
2017-02-15T07:18:35.645Z,1880
2017-02-15T07:19:41.746Z,2012
2017-02-15T07:20:47.846Z,2208
2017-02-15T07:21:52.015Z,2528
2017-02-15T07:22:58.099Z,2924
2017-02-15T07:24:01.264Z,3224
2017-02-15T07:25:06.429Z,3376
2017-02-15T07:26:12.527Z,3500
2017-02-15T07:27:17.670Z,3628
2017-02-15T07:28:23.769Z,3768
2017-02-15T07:29:29.869Z,3912
2017-02-15T07:30:35.968Z,4080
2017-02-15T07:31:42.089Z,4240
2017-02-15T07:32:48.161Z,4384
2017-02-15T07:33:53.293Z,4536
2017-02-15T07:34:59.411Z,4680
2017-02-15T07:36:04.524Z,4832
2017-02-15T07:37:10.625Z,4968
2017-02-15T07:38:16.719Z,5072
2017-02-15T07:39:22.819Z,5220
2017-02-15T07:40:28.909Z,5380
2017-02-15T07:41:34.037Z,5540
2017-02-15T07:42:40.138Z,5680
2017-02-15T07:43:46.274Z,5804
2017-02-15T07:44:51.387Z,5932
2017-02-15T07:45:57.484Z,6088
2017-02-15T07:47:02.636Z,6228
2017-02-15T07:48:08.725Z,6364
2017-02-15T07:49:14.822Z,6500
2017-02-15T07:50:20.917Z,6664
2017-02-15T07:51:27.012Z,6792
2017-02-15T07:52:33.116Z,6976
2017-02-15T07:53:39.226Z,7144
2017-02-15T07:54:44.382Z,7280
2017-02-15T07:55:49.484Z,7396
2017-02-15T07:56:54.736Z,7528
2017-02-15T07:57:58.789Z,7644
2017-02-15T07:59:04.958Z,7764
2017-02-15T08:00:11.063Z,7900
2017-02-15T08:01:17.225Z,8044
2017-02-15T08:02:23.327Z,8200
2017-02-15T08:03:29.429Z,8356
2017-02-15T08:04:35.542Z,8520
2017-02-15T08:05:39.709Z,8688
2017-02-15T08:06:45.833Z,8804
2017-02-15T08:07:50.963Z,8916
2017-02-15T08:08:56.111Z,9036
2017-02-15T08:10:01.248Z,9124
2017-02-15T08:11:05.408Z,9248
2017-02-15T08:12:11.513Z,9392
2017-02-15T08:13:17.674Z,9512
2017-02-15T08:14:23.767Z,9592
2017-02-15T08:15:26.993Z,9708
2017-02-15T08:16:32.131Z,9828
2017-02-15T08:17:38.242Z,9960
2017-02-15T08:18:44.344Z,10076
2017-02-15T08:19:50.449Z,10248
2017-02-15T08:20:55.591Z,10432
2017-02-15T08:21:58.817Z,10576
2017-02-15T08:23:02.991Z,10752
2017-02-15T08:24:09.096Z,10992
2017-02-15T08:25:15.211Z,11116
2017-02-15T08:26:20.343Z,11192
2017-02-15T08:27:26.447Z,11340
2017-02-15T08:28:31.601Z,11540
2017-02-15T08:29:37.720Z,11664
2017-02-15T08:30:42.861Z,11924
2017-02-15T08:31:47.990Z,12532
2017-02-15T08:32:54.105Z,12848
2017-02-15T08:34:00.212Z,12312
2017-02-15T08:35:06.333Z,11968
2017-02-15T08:36:12.444Z,12120
2017-02-15T08:37:17.566Z,12232
2017-02-15T08:38:23.650Z,12336
2017-02-15T08:39:28.831Z,12460
2017-02-15T08:40:34.914Z,12708
2017-02-15T08:41:40.057Z,12964
2017-02-15T08:42:45.184Z,12948
2017-02-15T08:43:51.296Z,12624
2017-02-15T08:44:54.465Z,12380
2017-02-15T08:45:58.617Z,12324
2017-02-15T08:47:03.761Z,12364
2017-02-15T08:48:07.902Z,12400
2017-02-15T08:49:13.010Z,12480
2017-02-15T08:50:19.157Z,12560
2017-02-15T08:51:24.275Z,12664
2017-02-15T08:52:30.415Z,12744
2017-02-15T08:53:35.565Z,12816
2017-02-15T08:54:40.698Z,12848
2017-02-15T08:55:44.866Z,12864
2017-02-15T08:56:50.977Z,12984
2017-02-15T08:57:56.105Z,13056
2017-02-15T08:59:00.276Z,13192
2017-02-15T09:00:04.422Z,13252
2017-02-15T09:01:09.535Z,13312
2017-02-15T09:02:15.638Z,13304
2017-02-15T09:03:20.780Z,13344
2017-02-15T09:04:25.927Z,13344
2017-02-15T09:05:30.078Z,13416
2017-02-15T09:06:35.217Z,13588
2017-02-15T09:07:41.296Z,13676
2017-02-15T09:08:47.422Z,13808
2017-02-15T09:09:52.567Z,13980
2017-02-15T09:10:57.683Z,14100
2017-02-15T09:12:03.802Z,14328
2017-02-15T09:13:09.943Z,14512
2017-02-15T09:14:16.061Z,14732
2017-02-15T09:15:22.176Z,15000
2017-02-15T09:16:28.309Z,15368
2017-02-15T09:17:34.399Z,15872
2017-02-15T09:18:37.585Z,16352
2017-02-15T09:19:42.729Z,17376
2017-02-15T09:20:47.871Z,18752
2017-02-15T09:21:53.979Z,20288
2017-02-15T09:22:59.126Z,21632
2017-02-15T09:24:05.250Z,21920
2017-02-15T09:25:11.345Z,22464
2017-02-15T09:26:16.539Z,22368
2017-02-15T09:27:21.662Z,22368
2017-02-15T09:28:27.769Z,22272
2017-02-15T09:29:32.909Z,22112
2017-02-15T09:30:39.031Z,21792
2017-02-15T09:31:44.171Z,21216
2017-02-15T09:32:49.344Z,21376
2017-02-15T09:33:54.482Z,21472
2017-02-15T09:35:00.659Z,21248
2017-02-15T09:36:06.831Z,21152
2017-02-15T09:37:10.965Z,21184
2017-02-15T09:38:17.069Z,21120
2017-02-15T09:39:22.240Z,21184
2017-02-15T09:40:28.453Z,21376
2017-02-15T09:41:34.620Z,21888
2017-02-15T09:42:40.752Z,22368
2017-02-15T09:43:46.840Z,22752
2017-02-15T09:44:51.949Z,23200
2017-02-15T09:45:57.096Z,24640
2017-02-15T09:47:03.203Z,27232
2017-02-15T09:48:07.359Z,30272
2017-02-15T09:49:12.509Z,32128
2017-02-15T09:50:16.709Z,33728
2017-02-15T09:51:20.852Z,35264
2017-02-15T09:52:25.121Z,36224
2017-02-15T09:53:29.300Z,37536
2017-02-15T09:54:35.408Z,38112
2017-02-15T09:55:40.561Z,37376
2017-02-15T09:56:45.672Z,38240
2017-02-15T09:57:50.807Z,38208
2017-02-15T09:58:56.927Z,38464
2017-02-15T10:00:02.071Z,38656
2017-02-15T10:01:08.173Z,38688
2017-02-15T10:02:13.353Z,38880
2017-02-15T10:03:19.431Z,40224
2017-02-15T10:04:24.662Z,40544
2017-02-15T10:05:29.801Z,40256
2017-02-15T10:06:34.922Z,40224
2017-02-15T10:07:40.032Z,39872
2017-02-15T10:08:45.152Z,40832
2017-02-15T10:09:49.331Z,40544
2017-02-15T10:10:55.457Z,40928
2017-02-15T10:12:01.574Z,40800
2017-02-15T10:13:07.708Z,40896
2017-02-15T10:14:12.924Z,40640
2017-02-15T10:15:16.121Z,40096
2017-02-15T10:16:21.294Z,40832
2017-02-15T10:17:26.414Z,40448
2017-02-15T10:18:32.528Z,40800
2017-02-15T10:19:37.660Z,42688
2017-02-15T10:20:42.817Z,44064
2017-02-15T10:21:47.950Z,43488
2017-02-15T10:22:53.100Z,38464
2017-02-15T10:23:58.260Z,32704
2017-02-15T10:25:03.408Z,31904
2017-02-15T10:26:07.564Z,33056
2017-02-15T10:27:12.679Z,34528
2017-02-15T10:29:23.902Z,34592
2017-02-15T10:30:29.090Z,35008
2017-02-15T10:31:35.199Z,35072
2017-02-15T10:32:41.310Z,34816
2017-02-15T10:33:47.431Z,35040
2017-02-15T10:34:53.543Z,35232
2017-02-15T10:35:58.683Z,36032
2017-02-15T10:37:02.881Z,35712
2017-02-15T10:38:08.007Z,35904
2017-02-15T10:39:13.153Z,35968
2017-02-15T10:40:19.329Z,35648
2017-02-15T10:41:24.475Z,36096
2017-02-15T10:42:27.659Z,36032
2017-02-15T10:43:32.868Z,36608
2017-02-15T10:44:38.912Z,35872
2017-02-15T10:45:43.065Z,35968
2017-02-15T10:46:49.179Z,35520
2017-02-15T10:47:54.353Z,35872
2017-02-15T10:49:00.471Z,36704
2017-02-15T10:50:05.610Z,35680
2017-02-15T10:51:09.781Z,36928
2017-02-15T10:52:14.966Z,37344
2017-02-15T10:53:21.099Z,37472
2017-02-15T10:54:25.248Z,38080
2017-02-15T10:55:31.371Z,43424
2017-02-15T10:56:37.489Z,38880
2017-02-15T10:57:43.602Z,36096
2017-02-15T10:58:49.715Z,35552
2017-02-15T10:59:55.835Z,36576
2017-02-15T11:01:01.972Z,35328
2017-02-15T11:02:07.118Z,34688
2017-02-15T11:03:12.242Z,34944
2017-02-15T11:04:18.359Z,34592
2017-02-15T11:05:24.484Z,34784
2017-02-15T11:06:28.639Z,36320
2017-02-15T11:07:33.780Z,33792
2017-02-15T11:08:39.902Z,15428
2017-02-15T11:09:46.009Z,5828
2017-02-15T11:10:51.151Z,5140
2017-02-15T11:11:57.306Z,5016
2017-02-15T11:13:02.416Z,5044
2017-02-15T11:14:06.645Z,5180
2017-02-15T11:15:11.772Z,5332
2017-02-15T11:16:16.895Z,5524
2017-02-15T11:17:21.039Z,21664
2017-02-15T11:18:27.146Z,26944
2017-02-15T11:19:31.330Z,8056
2017-02-15T11:20:37.459Z,4996
2017-02-15T11:21:43.568Z,4692
2017-02-15T11:22:48.691Z,4628
2017-02-15T11:23:59.335Z,4588
2017-02-15T11:25:24.607Z,4556
2017-02-15T15:54:59.484Z,1468
2017-02-15T15:56:05.307Z,1444
2017-02-15T15:57:10.435Z,1416
2017-02-15T15:58:16.531Z,1388
2017-02-15T15:59:21.774Z,1364
2017-02-15T16:00:26.911Z,1340
2017-02-15T16:01:33.038Z,1308
2017-02-15T16:02:38.129Z,1284
2017-02-15T16:03:44.228Z,1252
2017-02-15T16:04:49.364Z,1224
2017-02-15T16:05:55.517Z,1192
2017-02-15T16:07:01.633Z,1164
2017-02-15T16:08:06.884Z,1136
2017-02-15T16:09:12.022Z,1104
2017-02-15T16:10:16.152Z,1076
2017-02-15T16:11:22.271Z,1044
2017-02-15T16:12:27.435Z,1012
2017-02-15T16:13:32.608Z,980
2017-02-15T16:14:38.734Z,948
2017-02-15T16:15:44.857Z,912
2017-02-15T16:16:50.046Z,880
2017-02-15T16:17:56.167Z,844
2017-02-15T16:19:02.284Z,808
2017-02-15T16:20:06.450Z,776
2017-02-15T16:21:12.570Z,740
2017-02-15T16:22:17.749Z,708
2017-02-15T16:23:23.926Z,672
2017-02-15T16:24:29.064Z,644
2017-02-15T16:26:40.270Z,580
2017-02-15T16:27:45.398Z,552
2017-02-15T16:28:49.544Z,520
2017-02-15T16:29:53.712Z,492
2017-02-15T16:30:59.824Z,464
2017-02-15T16:32:05.937Z,436
2017-02-15T16:33:12.032Z,408
2017-02-15T16:34:17.139Z,380
2017-02-15T16:35:20.335Z,356
2017-02-15T16:36:25.473Z,332
2017-02-15T16:37:31.601Z,304
2017-02-15T16:38:35.740Z,284
2017-02-15T16:39:41.837Z,256
2017-02-15T16:40:46.988Z,232
2017-02-15T16:41:53.230Z,212
2017-02-15T16:42:58.362Z,192
2017-02-15T16:44:03.507Z,176
2017-02-15T16:45:09.617Z,156
2017-02-15T16:46:15.720Z,140
2017-02-15T16:47:20.944Z,124
2017-02-15T16:48:25.111Z,108
2017-02-15T16:49:31.264Z,96
2017-02-15T16:50:35.421Z,84
2017-02-15T16:51:40.532Z,76
2017-02-15T16:52:44.725Z,64
2017-02-15T16:53:48.897Z,52
2017-02-15T16:54:55.202Z,48
2017-02-15T16:56:01.331Z,40
2017-02-15T16:57:07.439Z,36
2017-02-15T16:58:12.681Z,28
2017-02-15T16:59:18.799Z,32
2017-02-15T17:00:23.922Z,28
2017-02-15T17:01:30.024Z,24
2017-02-15T17:02:35.191Z,24
2017-02-15T17:03:40.327Z,20
2017-02-15T17:04:45.472Z,16
2017-02-15T17:05:51.574Z,16
2017-02-15T17:06:57.677Z,16
2017-02-15T17:08:03.765Z,16
2017-02-15T17:09:08.973Z,12
2017-02-15T17:10:14.104Z,12
2017-02-15T17:11:19.237Z,12
2017-02-15T17:12:25.357Z,12
2017-02-15T17:13:29.501Z,12
2017-02-15T17:14:35.676Z,8
2017-02-15T17:15:41.807Z,12
2017-02-15T17:16:47.899Z,12
2017-02-15T17:17:53.026Z,12
2017-02-15T17:18:59.132Z,12
2017-02-15T17:20:04.265Z,12
2017-02-15T17:21:10.376Z,12
2017-02-15T17:22:15.511Z,12
2017-02-15T17:23:18.693Z,12
2017-02-15T17:24:24.936Z,12
2017-02-15T17:25:30.112Z,12
2017-02-15T17:26:34.288Z,12
2017-02-15T17:27:39.430Z,12
2017-02-15T17:28:44.529Z,12
2017-02-15T17:29:48.702Z,12
2017-02-15T17:30:54.788Z,12
2017-02-15T17:32:00.094Z,12
2017-02-15T17:33:06.201Z,12
2017-02-15T17:34:12.315Z,12
2017-02-15T17:35:18.433Z,12
2017-02-15T17:36:24.536Z,8
2017-02-15T17:37:30.640Z,8
2017-02-15T17:38:33.845Z,8
2017-02-15T17:39:37.976Z,8
2017-02-15T17:40:44.081Z,8
2017-02-15T17:41:48.351Z,8
2017-02-15T17:42:54.683Z,8
2017-02-15T17:43:59.780Z,8
2017-02-15T17:45:02.986Z,12
2017-02-15T17:46:07.165Z,12
2017-02-15T17:47:11.334Z,12
2017-02-15T17:48:16.473Z,8
2017-02-15T17:49:21.583Z,8
2017-02-15T17:50:26.729Z,12
2017-02-15T17:51:30.864Z,12
2017-02-15T17:52:35.971Z,12
2017-02-15T17:53:41.100Z,12
2017-02-15T17:54:46.281Z,12
2017-02-15T17:55:51.367Z,12
2017-02-15T17:56:57.439Z,12
2017-02-15T17:58:03.545Z,12
2017-02-15T17:59:08.686Z,12
2017-02-15T18:00:14.788Z,12
2017-02-15T18:01:19.915Z,8
2017-02-15T18:02:24.082Z,12
2017-02-15T18:03:30.211Z,12
2017-02-15T18:04:36.380Z,12
2017-02-15T18:05:42.474Z,12
2017-02-15T18:06:47.621Z,8
2017-02-15T18:07:52.801Z,12
2017-02-15T18:08:57.919Z,12
2017-02-15T18:10:03.076Z,12
2017-02-15T18:11:08.184Z,12
2017-02-15T18:12:11.378Z,12
2017-02-15T18:13:15.546Z,12
2017-02-15T18:14:21.663Z,12
2017-02-15T18:15:27.939Z,12
2017-02-15T18:16:33.092Z,12
2017-02-15T18:17:38.201Z,12
2017-02-15T18:18:44.305Z,12
2017-02-15T18:19:49.414Z,12
2017-02-15T18:20:54.544Z,12
2017-02-15T18:21:59.671Z,12
2017-02-15T18:23:04.794Z,12
2017-02-15T18:24:10.907Z,12
2017-02-15T18:25:16.044Z,12
2017-02-15T18:26:19.229Z,12
2017-02-15T18:27:25.378Z,12
2017-02-15T18:28:30.498Z,12
2017-02-15T18:29:36.600Z,12
2017-02-15T18:30:42.754Z,12
2017-02-15T18:31:48.866Z,12
2017-02-15T18:32:53.030Z,12
2017-02-15T18:33:58.157Z,12
2017-02-15T18:35:04.287Z,12
2017-02-15T18:36:10.373Z,12
2017-02-15T18:37:16.480Z,12
2017-02-15T18:38:19.642Z,12
2017-02-15T18:39:25.748Z,12
2017-02-15T18:40:31.860Z,12
2017-02-15T18:41:36.038Z,12
2017-02-15T18:42:42.140Z,12
2017-02-15T18:43:48.237Z,12
2017-02-15T18:44:54.330Z,12
2017-02-15T18:46:00.443Z,12
2017-02-15T18:47:05.569Z,12
2017-02-15T18:48:09.797Z,12
2017-02-15T18:49:14.937Z,12
2017-02-15T18:50:19.110Z,12
2017-02-15T18:51:23.270Z,12
2017-02-15T18:52:29.369Z,12
2017-02-15T18:53:35.493Z,12
2017-02-15T18:54:41.592Z,8
2017-02-15T18:55:46.729Z,12
2017-02-15T18:56:52.826Z,12
2017-02-15T18:57:57.964Z,12
2017-02-15T18:59:02.130Z,12
2017-02-15T19:00:07.268Z,8
2017-02-15T19:01:13.377Z,8
2017-02-15T19:02:19.489Z,8
2017-02-15T19:03:25.595Z,8
2017-02-15T19:04:29.743Z,8
2017-02-15T19:05:35.852Z,12
2017-02-15T19:06:41.008Z,8
2017-02-15T19:07:47.089Z,8
2017-02-15T19:08:52.227Z,12
2017-02-15T19:09:56.359Z,12
2017-02-15T19:11:02.556Z,8
2017-02-15T19:12:07.681Z,12
2017-02-15T19:13:12.828Z,12
2017-02-15T19:14:17.983Z,12
2017-02-15T19:15:24.096Z,12
2017-02-15T19:16:29.228Z,12
2017-02-15T19:17:34.348Z,12
2017-02-15T19:18:38.517Z,12
2017-02-15T19:19:43.652Z,8
2017-02-15T19:20:48.789Z,12
2017-02-15T19:21:52.976Z,12
2017-02-15T19:22:58.107Z,12
2017-02-15T19:24:03.242Z,8
2017-02-15T19:25:08.440Z,8
2017-02-15T19:26:14.542Z,8
2017-02-15T19:27:18.683Z,12
2017-02-15T19:28:24.793Z,12
2017-02-15T19:29:29.946Z,12
2017-02-15T19:30:34.137Z,12
2017-02-15T19:31:38.263Z,12
2017-02-15T19:32:42.466Z,12
2017-02-15T19:33:47.563Z,12
2017-02-15T19:34:50.745Z,12
2017-02-15T19:35:54.904Z,12
2017-02-15T19:37:00.048Z,12
2017-02-15T19:38:06.154Z,12
2017-02-15T19:39:12.347Z,12
2017-02-15T19:40:16.541Z,12
2017-02-15T19:41:21.645Z,12
2017-02-15T19:42:27.739Z,8
2017-02-15T19:43:33.897Z,12
2017-02-15T19:44:40.017Z,12
2017-02-15T19:45:45.121Z,12
2017-02-15T19:46:50.258Z,12
2017-02-15T19:47:55.366Z,12
2017-02-15T19:49:00.516Z,12
2017-02-15T19:50:06.688Z,12
2017-02-15T19:51:12.907Z,12
2017-02-15T19:52:19.021Z,12
2017-02-15T19:53:24.143Z,12
2017-02-15T19:54:28.352Z,12
2017-02-15T19:55:32.523Z,12
2017-02-15T19:56:38.628Z,12
2017-02-15T19:57:42.796Z,16
2017-02-15T19:58:47.926Z,12
2017-02-15T19:59:53.157Z,16
2017-02-15T20:00:59.255Z,12
2017-02-15T20:02:04.394Z,12
2017-02-15T20:03:10.510Z,12
2017-02-15T20:04:16.611Z,12
2017-02-15T20:05:22.836Z,12
2017-02-15T20:06:26.984Z,12
2017-02-15T20:07:32.099Z,12
2017-02-15T20:08:37.248Z,16
2017-02-15T20:09:43.346Z,12
2017-02-15T20:10:48.466Z,12
2017-02-15T20:11:53.608Z,12
2017-02-15T20:12:59.716Z,12
2017-02-15T20:14:04.854Z,12
2017-02-15T20:15:10.973Z,12
2017-02-15T20:16:16.102Z,16
2017-02-15T20:17:22.224Z,16
2017-02-15T20:18:27.365Z,16
2017-02-15T20:19:33.468Z,12
2017-02-15T20:20:39.586Z,12
2017-02-15T20:21:45.680Z,12
2017-02-15T20:22:51.779Z,16
2017-02-15T20:23:57.893Z,16
2017-02-15T20:25:04.004Z,16
2017-02-15T20:26:10.114Z,16
2017-02-15T20:27:15.254Z,16
2017-02-15T20:28:20.384Z,16
2017-02-15T20:29:24.551Z,16
2017-02-15T20:30:29.733Z,16
2017-02-15T20:31:35.918Z,16
2017-02-15T20:32:42.031Z,16
2017-02-15T20:33:47.210Z,16
2017-02-15T20:34:53.334Z,16
2017-02-15T20:35:59.448Z,16
2017-02-15T20:37:05.573Z,16
2017-02-15T20:38:10.714Z,16
2017-02-15T20:39:16.815Z,16
2017-02-15T20:40:22.937Z,16
2017-02-15T20:41:28.110Z,16
2017-02-15T20:42:33.252Z,16
2017-02-15T20:43:39.362Z,16
2017-02-15T20:44:45.460Z,16
2017-02-15T20:45:50.551Z,20
2017-02-15T20:46:55.683Z,20
2017-02-15T20:48:01.797Z,16
2017-02-15T20:49:06.954Z,20
2017-02-15T20:50:12.143Z,16
2017-02-15T20:51:18.309Z,20
2017-02-15T20:52:24.515Z,20
2017-02-15T20:53:29.644Z,16
2017-02-15T20:54:34.796Z,20
2017-02-15T20:55:40.876Z,20
2017-02-15T20:56:46.979Z,20
2017-02-15T20:57:53.104Z,20
2017-02-15T20:58:59.246Z,20
2017-02-15T21:00:04.362Z,24
2017-02-15T21:01:10.479Z,20
2017-02-15T21:02:16.611Z,20
2017-02-15T21:03:22.727Z,20
2017-02-15T21:04:28.876Z,20
2017-02-15T21:05:33.057Z,20
2017-02-15T21:06:39.161Z,24
2017-02-15T21:07:44.297Z,24
2017-02-15T21:08:50.399Z,24
2017-02-15T21:09:56.528Z,24
2017-02-15T21:11:01.790Z,20
2017-02-15T21:12:06.976Z,24
2017-02-15T21:13:13.090Z,24
2017-02-15T21:14:19.197Z,24
2017-02-15T21:15:25.299Z,24
2017-02-15T21:16:30.439Z,24
2017-02-15T21:17:35.589Z,24
2017-02-15T21:18:41.758Z,24
2017-02-15T21:19:47.866Z,24
2017-02-15T21:20:53.006Z,24
2017-02-15T21:21:57.171Z,24
2017-02-15T21:23:02.311Z,24
2017-02-15T21:24:08.428Z,24
2017-02-15T21:25:13.536Z,24
2017-02-15T21:26:18.658Z,24
2017-02-15T21:27:24.754Z,24
2017-02-15T21:28:29.911Z,24
2017-02-15T21:29:35.039Z,24
2017-02-15T21:30:41.163Z,24
2017-02-15T21:31:46.286Z,24
2017-02-15T21:32:51.432Z,24
2017-02-15T21:33:57.508Z,24
2017-02-15T21:35:03.647Z,24
2017-02-15T21:36:09.742Z,24
2017-02-15T21:37:14.975Z,24
2017-02-15T21:38:21.047Z,24
2017-02-15T21:39:25.216Z,20
2017-02-15T21:40:30.408Z,24
2017-02-15T21:41:36.520Z,24
2017-02-15T21:42:42.603Z,24
2017-02-15T21:43:48.701Z,20
2017-02-15T21:44:54.814Z,24
2017-02-15T21:45:59.956Z,24
2017-02-15T21:47:05.100Z,20
2017-02-15T21:48:10.218Z,24
2017-02-15T21:49:16.331Z,20
2017-02-15T21:50:22.437Z,24
2017-02-15T21:51:27.545Z,24
2017-02-15T21:52:32.682Z,20
2017-02-15T21:53:37.818Z,24
2017-02-15T21:54:43.916Z,20
2017-02-15T21:55:50.032Z,24
2017-02-15T21:56:55.167Z,24
2017-02-15T21:58:01.249Z,24
2017-02-15T21:59:04.443Z,24
2017-02-15T22:00:10.547Z,24
2017-02-15T22:01:16.708Z,20
2017-02-15T22:02:21.849Z,20
2017-02-15T22:03:26.984Z,20
2017-02-15T22:04:32.126Z,20
2017-02-15T22:05:37.255Z,24
2017-02-15T22:06:42.385Z,24
2017-02-15T22:07:45.578Z,24
2017-02-15T22:08:50.726Z,24
2017-02-15T22:09:56.925Z,24
2017-02-15T22:11:02.046Z,20
2017-02-15T22:12:07.124Z,24
2017-02-15T22:13:12.259Z,20
2017-02-15T22:14:18.351Z,20
2017-02-15T22:15:24.458Z,20
2017-02-15T22:16:30.683Z,24
2017-02-15T22:17:35.827Z,24
2017-02-15T22:18:41.914Z,24
2017-02-15T22:19:47.178Z,20
2017-02-15T22:20:52.201Z,20
2017-02-15T22:21:56.356Z,20
2017-02-15T22:23:02.456Z,20
2017-02-15T22:24:08.558Z,20
2017-02-15T22:25:14.670Z,20
2017-02-15T22:26:20.777Z,20
2017-02-15T22:27:24.978Z,24
2017-02-15T22:28:31.087Z,20
2017-02-15T22:29:36.247Z,20
2017-02-15T22:30:42.354Z,20
2017-02-15T22:31:47.485Z,20
2017-02-15T22:32:52.622Z,20
2017-02-15T22:33:58.723Z,20
2017-02-15T22:35:04.895Z,20
2017-02-15T22:36:10.981Z,20
2017-02-15T22:37:16.097Z,20
2017-02-15T22:38:22.202Z,20
2017-02-15T22:39:28.308Z,20
2017-02-15T22:40:34.424Z,20
2017-02-15T22:41:39.554Z,20
2017-02-15T22:42:44.684Z,20
2017-02-15T22:43:49.818Z,20
2017-02-15T22:44:54.050Z,20
2017-02-15T22:46:00.165Z,20
2017-02-15T22:47:05.317Z,20
2017-02-15T22:48:09.482Z,20
2017-02-15T22:49:14.583Z,20
2017-02-15T22:50:18.758Z,20
2017-02-15T22:51:23.872Z,20
2017-02-15T22:52:28.078Z,20
2017-02-15T22:53:34.177Z,20
2017-02-15T22:54:39.414Z,20
2017-02-15T22:55:42.614Z,16
2017-02-15T22:56:48.723Z,16
2017-02-15T22:57:54.825Z,16
2017-02-15T22:58:58.039Z,16
2017-02-15T23:00:03.189Z,16
2017-02-15T23:01:09.289Z,16
2017-02-15T23:02:14.446Z,20
2017-02-15T23:03:20.539Z,20
2017-02-15T23:04:23.744Z,20
2017-02-15T23:05:27.876Z,20
2017-02-15T23:06:33.972Z,16
2017-02-15T23:07:37.126Z,16
2017-02-15T23:08:43.245Z,16
2017-02-15T23:09:49.341Z,16
2017-02-15T23:10:54.470Z,16
2017-02-15T23:11:58.649Z,20
2017-02-15T23:13:04.748Z,16
2017-02-15T23:14:10.846Z,16
2017-02-15T23:15:15.977Z,20
2017-02-15T23:16:22.080Z,20
2017-02-15T23:17:28.183Z,20
2017-02-15T23:18:34.288Z,20
2017-02-15T23:19:39.489Z,20
2017-02-15T23:20:45.558Z,20
2017-02-15T23:21:49.684Z,20
2017-02-15T23:22:55.801Z,20
2017-02-15T23:24:01.931Z,20
2017-02-15T23:25:08.028Z,16
2017-02-15T23:26:14.135Z,16
2017-02-15T23:27:20.247Z,16
2017-02-15T23:28:26.344Z,20
2017-02-15T23:29:30.505Z,0
2017-02-15T23:30:35.638Z,0
2017-02-15T23:31:39.796Z,0
2017-02-15T23:32:44.941Z,0
2017-02-15T23:33:51.039Z,0
2017-02-15T23:34:55.179Z,0
2017-02-15T23:36:00.300Z,0
2017-02-15T23:37:05.396Z,0
2017-02-15T23:38:11.496Z,0
2017-02-15T23:39:16.597Z,0
2017-02-15T23:40:22.703Z,0
2017-02-15T23:41:28.798Z,0
2017-02-15T23:42:32.953Z,0
2017-02-15T23:43:38.083Z,0
2017-02-15T23:44:44.180Z,0
2017-02-15T23:45:49.308Z,0
2017-02-15T23:46:55.417Z,0
2017-02-15T23:48:01.521Z,0
2017-02-15T23:49:05.652Z,0
2017-02-15T23:50:11.749Z,0
2017-02-15T23:51:17.850Z,0
2017-02-15T23:52:23.957Z,0
2017-02-15T23:53:29.084Z,0
2017-02-15T23:54:35.182Z,0
2017-02-15T23:55:41.283Z,0
2017-02-15T23:56:45.416Z,0
2017-02-15T23:57:50.518Z,0
2017-02-15T23:58:56.629Z,0
